createdAt,value
2023-04-18T05:03:07.441Z,76.15
2023-04-18T05:08:09.387Z,56.30
2023-04-18T05:13:10.978Z,52.63
2023-04-18T05:18:14.112Z,43.03
2023-04-18T05:23:16.167Z,116.70
2023-04-18T05:28:17.621Z,73.00
2023-04-18T05:33:19.050Z,86.75
2023-04-18T05:38:20.619Z,68.30
2023-04-18T05:43:23.370Z,57.35
2023-04-18T05:48:25.186Z,73.47
2023-04-18T05:53:26.670Z,98.35
2023-04-18T05:58:28.800Z,36.85
2023-04-18T06:03:30.395Z,66.50
2023-04-18T06:08:31.932Z,51.25
2023-04-18T06:13:33.468Z,46.97
2023-04-18T06:18:34.947Z,28.75
2023-04-18T06:23:36.947Z,63.85
2023-04-18T06:28:38.398Z,71.33
2023-04-18T06:33:39.855Z,102.38
2023-04-18T06:38:41.325Z,205.55
2023-04-18T06:43:52.106Z,261.38
2023-04-18T06:49:03.996Z,110.07
2023-04-18T06:54:05.499Z,240.00
2023-04-18T06:59:06.944Z,262.65
2023-04-18T07:04:08.889Z,350.77
2023-04-18T07:09:10.512Z,158.07
2023-04-18T07:14:12.371Z,173.13
2023-04-18T07:19:14.179Z,102.77
2023-04-18T07:24:15.817Z,156.25
2023-04-18T07:29:19.289Z,59.50
2023-04-18T07:34:22.016Z,121.60
2023-04-18T07:39:23.459Z,74.05
2023-04-18T07:44:25.290Z,92.55
2023-04-18T07:49:26.842Z,82.63
2023-04-18T07:54:28.314Z,165.45
2023-04-18T07:59:29.921Z,105.05
2023-04-18T08:04:31.536Z,63.03
2023-04-18T08:09:34.251Z,158.73
2023-04-18T08:14:35.726Z,93.30
2023-04-18T08:19:37.224Z,73.28
2023-04-18T08:24:38.962Z,44.60
2023-04-18T08:29:41.541Z,42.53
2023-04-18T08:34:43.377Z,37.15
2023-04-18T08:39:45.045Z,45.97
2023-04-18T08:44:47.117Z,26.48
2023-04-18T08:49:48.744Z,21.97
2023-04-18T08:54:50.907Z,27.90
2023-04-18T08:59:56.357Z,23.80
2023-04-18T09:04:57.797Z,34.92
2023-04-18T09:09:59.336Z,25.35
2023-04-18T09:15:14.073Z,24.70
2023-04-18T09:20:41.146Z,23.63
2023-04-18T09:25:46.631Z,28.38
2023-04-18T09:30:51.357Z,25.48
2023-04-18T09:35:53.148Z,26.05
2023-04-18T09:41:08.921Z,26.27
2023-04-18T09:46:11.156Z,26.40
2023-04-18T09:51:16.512Z,27.13
2023-04-18T09:56:26.097Z,25.75
2023-04-18T10:01:28.501Z,25.30
2023-04-18T10:06:34.416Z,28.10
2023-04-18T10:11:36.430Z,30.70
2023-04-18T10:16:38.804Z,28.30
2023-04-18T10:21:51.365Z,29.10
2023-04-18T10:26:52.855Z,27.67
2023-04-18T10:31:54.338Z,31.20
2023-04-18T10:37:06.126Z,37.10
2023-04-18T10:42:07.592Z,31.80
2023-04-18T10:47:09.129Z,33.63
2023-04-18T10:52:13.282Z,34.85
2023-04-18T10:57:15.352Z,30.35
2023-04-18T11:02:29.941Z,27.45
2023-04-18T11:07:52.820Z,29.27
2023-04-18T11:12:55.047Z,35.30
2023-04-18T11:18:01.675Z,35.10
2023-04-18T11:23:03.520Z,30.25
2023-04-18T11:28:04.979Z,33.03
2023-04-18T11:33:08.410Z,34.13
2023-04-18T11:38:12.577Z,29.58
2023-04-18T11:43:21.359Z,34.28
2023-04-18T11:48:23.639Z,26.45
2023-04-18T11:53:32.727Z,27.83
2023-04-18T11:58:34.872Z,27.65
2023-04-18T12:03:36.631Z,26.80
2023-04-18T12:08:38.172Z,27.58
2023-04-18T12:13:39.628Z,27.17
2023-04-18T12:18:41.813Z,27.60
2023-04-18T12:23:45.782Z,27.13
2023-04-18T12:28:51.010Z,26.17
2023-04-18T12:33:52.654Z,27.65
2023-04-18T12:38:54.133Z,28.38
2023-04-18T12:43:55.625Z,31.83
2023-04-18T12:48:57.414Z,29.70
2023-04-18T12:53:58.960Z,27.10
2023-04-18T12:59:00.528Z,31.92
2023-04-18T13:04:11.750Z,30.13
2023-04-18T13:09:14.509Z,31.03
2023-04-18T13:14:16.231Z,28.50
2023-04-18T13:19:17.661Z,27.95
2023-04-18T13:24:19.127Z,29.95
2023-04-18T13:29:20.660Z,28.75
2023-04-18T13:34:22.090Z,25.77
2023-04-18T13:39:24.705Z,31.33
2023-04-18T13:44:26.223Z,28.27
2023-04-18T13:49:28.036Z,32.65
2023-04-18T13:54:31.410Z,29.05
2023-04-18T13:59:33.020Z,24.30
2023-04-18T14:04:34.939Z,26.75
2023-04-18T14:09:36.436Z,29.93
2023-04-18T14:14:37.864Z,43.53
2023-04-18T14:19:39.282Z,31.02
2023-04-18T14:24:40.730Z,30.65
2023-04-18T14:29:42.155Z,22.27
2023-04-18T14:34:43.626Z,21.48
2023-04-18T14:39:45.072Z,22.77
2023-04-18T14:44:46.506Z,22.70
2023-04-18T14:49:47.947Z,22.50
2023-04-18T14:54:49.406Z,19.45
2023-04-18T14:59:51.157Z,20.40
2023-04-18T15:04:53.311Z,20.65
2023-04-18T15:09:54.875Z,21.55
2023-04-18T15:14:56.584Z,20.48
2023-04-18T15:20:00.918Z,20.38
2023-04-18T15:25:03.983Z,23.35
2023-04-18T15:30:07.711Z,19.80
2023-04-18T15:35:10.067Z,22.58
2023-04-18T15:40:15.955Z,22.42
2023-04-18T15:45:17.439Z,23.70
2023-04-18T15:50:19.018Z,21.50
2023-04-18T15:55:20.642Z,24.00
2023-04-18T16:00:23.160Z,32.38
2023-04-18T16:05:24.721Z,28.60
2023-04-18T16:10:26.187Z,25.73
2023-04-18T16:15:29.404Z,28.58
2023-04-18T16:20:33.083Z,25.45
2023-04-18T16:25:34.541Z,24.85
2023-04-18T16:30:36.087Z,29.00
2023-04-18T16:35:37.530Z,24.38
2023-04-18T16:40:38.959Z,29.38
2023-04-18T16:45:40.472Z,26.02
2023-04-18T16:50:45.651Z,27.42
2023-04-18T16:55:47.072Z,26.92
2023-04-18T17:00:48.626Z,30.02
2023-04-18T17:05:50.375Z,26.00
2023-04-18T17:10:52.581Z,24.95
2023-04-18T17:15:54.226Z,26.17
2023-04-18T17:20:55.854Z,23.10
2023-04-18T17:25:57.596Z,25.25
2023-04-18T17:31:01.237Z,25.92
2023-04-18T17:36:06.330Z,28.25
2023-04-18T17:41:07.991Z,22.00
2023-04-18T17:46:09.592Z,23.27
2023-04-18T17:51:11.167Z,25.23
2023-04-18T17:56:14.073Z,26.00
2023-04-18T18:01:17.264Z,24.92
2023-04-18T18:06:19.092Z,23.67
2023-04-18T18:11:21.344Z,21.45
2023-04-18T18:16:24.001Z,23.58
2023-04-18T18:21:26.223Z,23.77
2023-04-18T18:26:27.691Z,23.20
2023-04-18T18:31:29.200Z,25.13
2023-04-18T18:36:32.197Z,24.42
2023-04-18T18:41:33.898Z,27.50
2023-04-18T18:46:36.039Z,25.73
2023-04-18T18:51:37.651Z,25.43
2023-04-18T18:56:39.951Z,23.52
2023-04-18T19:01:41.632Z,23.95
2023-04-18T19:06:43.180Z,23.17
2023-04-18T19:11:44.688Z,28.33
2023-04-18T19:16:46.172Z,21.20
2023-04-18T19:21:49.145Z,23.88
2023-04-18T19:26:50.748Z,22.58
2023-04-18T19:31:52.302Z,20.10
2023-04-18T19:36:53.849Z,23.00
2023-04-18T19:41:55.361Z,24.60
2023-04-18T19:46:57.120Z,23.15
2023-04-18T19:51:58.672Z,20.65
2023-04-18T19:57:01.064Z,23.33
2023-04-18T20:02:05.655Z,27.42
2023-04-18T20:07:07.914Z,28.75
2023-04-18T20:12:09.456Z,22.27
2023-04-18T20:17:11.357Z,22.80
2023-04-18T20:22:14.715Z,24.90
2023-04-18T20:27:18.668Z,20.45
2023-04-18T20:32:20.493Z,20.52
2023-04-18T20:37:22.269Z,21.37
2023-04-18T20:42:23.823Z,20.83
2023-04-18T20:47:26.034Z,21.95
2023-04-18T20:52:27.614Z,23.08
2023-04-18T20:57:29.320Z,24.77
2023-04-18T21:02:30.849Z,23.55
2023-04-18T21:07:32.897Z,23.40
2023-04-18T21:12:34.892Z,21.57
2023-04-18T21:17:36.460Z,23.57
2023-04-18T21:22:38.364Z,25.48
2023-04-18T21:27:39.836Z,22.97
2023-04-18T21:32:41.343Z,25.70
2023-04-18T21:37:43.841Z,22.40
2023-04-18T21:52:52.034Z,25.33
2023-04-18T21:57:54.172Z,24.35
